Terminal Aerodrome Forecast
Issued by NWS Sterling, VA

Home | Current Version | Previous Version | Text Only | Print | Product List | Glossary On
Versions: 1 2 3 4 5 6 7 8 9 10 11 12 13 14 15 16 17 18 19 20 21
068
FTUS41 KLWX 301736
TAFCHO
TAF
KCHO 301736Z 3018/3118 14006KT P6SM SCT045 OVC050
     FM310600 11005KT 5SM -RA BKN015 OVC025
     FM310900 09005KT 3SM -RA BKN010 OVC025
     FM311200 10006KT 3SM RA BKN008 OVC025
     FM311500 12005KT 2SM RA BKN008 OVC020
     FM311700 17005KT 3SM RA SCT020 OVC035=

USA.gov is the U.S. government's official web portal to all federal, state and local government web resources and services.